createdAt,value
2023-10-25T00:00:14.175Z,5.03
2023-10-25T00:02:41.374Z,4.70
2023-10-25T00:05:10.473Z,6.03
2023-10-25T00:07:37.612Z,6.07
2023-10-25T00:10:05.525Z,4.75
2023-10-25T00:12:32.762Z,4.97
2023-10-25T00:14:59.973Z,3.85
2023-10-25T00:17:27.200Z,4.55
2023-10-25T00:19:54.382Z,5.95
2023-10-25T00:22:22.892Z,5.35
2023-10-25T00:24:50.086Z,5.30
2023-10-25T00:27:17.314Z,4.45
2023-10-25T00:29:44.854Z,5.28
2023-10-25T00:32:12.047Z,3.65
2023-10-25T00:34:39.232Z,5.05
2023-10-25T00:37:06.434Z,4.50
2023-10-25T00:39:35.008Z,4.78
2023-10-25T00:42:02.217Z,4.65
2023-10-25T00:44:29.371Z,6.10
2023-10-25T00:46:56.787Z,4.05
2023-10-25T00:49:24.732Z,5.93
2023-10-25T00:51:51.951Z,3.80
2023-10-25T00:54:19.604Z,4.40
2023-10-25T00:56:49.977Z,2.88
2023-10-25T00:59:18.980Z,3.50
2023-10-25T01:01:47.418Z,4.75
2023-10-25T01:04:14.987Z,4.55
2023-10-25T01:06:42.381Z,4.40
2023-10-25T01:09:10.049Z,3.95
2023-10-25T01:11:38.230Z,3.38
2023-10-25T01:14:07.041Z,3.13
2023-10-25T01:16:34.224Z,2.83
2023-10-25T01:19:01.881Z,4.30
2023-10-25T01:21:29.553Z,4.30
2023-10-25T01:23:58.063Z,3.22
2023-10-25T01:26:25.198Z,4.40
2023-10-25T01:28:52.368Z,3.20
2023-10-25T01:31:19.603Z,2.80
2023-10-25T01:33:46.866Z,2.80
2023-10-25T01:36:14.069Z,3.72
2023-10-25T01:38:41.208Z,3.08
2023-10-25T01:41:10.425Z,4.20
2023-10-25T01:43:37.581Z,4.07
2023-10-25T01:46:04.759Z,3.55
2023-10-25T01:48:32.078Z,4.38
2023-10-25T01:50:59.273Z,3.08
2023-10-25T01:53:26.392Z,3.75
2023-10-25T01:55:53.539Z,3.20
2023-10-25T01:58:22.054Z,3.17
2023-10-25T02:00:49.257Z,2.72
2023-10-25T02:03:16.504Z,2.85
2023-10-25T02:05:43.890Z,3.30
2023-10-25T02:08:11.042Z,3.47
2023-10-25T02:10:38.226Z,2.80
2023-10-25T02:13:05.551Z,2.33
2023-10-25T02:15:34.023Z,2.78
2023-10-25T02:18:01.231Z,2.63
2023-10-25T02:20:28.441Z,2.30
2023-10-25T02:22:55.576Z,2.55
2023-10-25T02:25:22.760Z,2.28
2023-10-25T02:27:50.155Z,3.20
2023-10-25T02:30:17.382Z,2.50
2023-10-25T02:32:45.905Z,1.92
2023-10-25T02:35:13.103Z,2.40
2023-10-25T02:37:40.236Z,3.08
2023-10-25T02:40:08.418Z,2.83
2023-10-25T02:42:35.605Z,2.97
2023-10-25T02:45:02.824Z,3.08
2023-10-25T02:47:30.067Z,2.85
2023-10-25T02:49:58.570Z,1.92
2023-10-25T02:52:25.698Z,2.95
2023-10-25T02:54:54.668Z,2.45
2023-10-25T02:57:21.934Z,3.80
2023-10-25T02:59:49.077Z,2.55
2023-10-25T03:02:16.224Z,3.33
2023-10-25T03:04:43.511Z,2.17
2023-10-25T03:07:12.109Z,2.03
2023-10-25T03:09:39.342Z,2.13
2023-10-25T03:12:06.803Z,2.28
2023-10-25T03:14:33.950Z,2.70
2023-10-25T03:17:01.133Z,2.20
2023-10-25T03:19:28.406Z,2.45
2023-10-25T03:21:55.642Z,1.95
2023-10-25T03:24:24.203Z,2.42
2023-10-25T03:26:51.371Z,2.15
2023-10-25T03:29:18.517Z,3.10
2023-10-25T03:31:45.688Z,2.30
2023-10-25T03:34:13.083Z,2.00
2023-10-25T03:36:40.345Z,1.52
2023-10-25T03:39:07.566Z,1.92
2023-10-25T03:41:36.067Z,2.42
2023-10-25T03:44:03.240Z,5.10
2023-10-25T03:46:30.480Z,3.40
2023-10-25T03:48:57.763Z,3.33
2023-10-25T03:51:24.922Z,2.90
2023-10-25T03:53:52.244Z,4.25
2023-10-25T03:56:19.416Z,3.38
2023-10-25T03:58:47.923Z,1.95
2023-10-25T04:01:15.203Z,2.15
2023-10-25T04:03:42.562Z,2.38
2023-10-25T04:06:10.069Z,4.55
2023-10-25T04:08:37.587Z,2.33
2023-10-25T04:11:04.990Z,3.38
2023-10-25T04:13:32.230Z,3.70
2023-10-25T04:16:02.428Z,3.60
2023-10-25T04:18:30.962Z,32.75
2023-10-25T04:21:00.074Z,1999.90
2023-10-25T04:23:28.765Z,1999.90
2023-10-25T04:26:04.089Z,1999.90
2023-10-25T04:28:31.723Z,680.40
2023-10-25T04:31:00.569Z,437.90
2023-10-25T04:33:28.180Z,491.25
2023-10-25T04:35:55.312Z,438.00
2023-10-25T04:38:22.570Z,362.30
2023-10-25T04:40:49.716Z,266.67
2023-10-25T04:43:17.063Z,244.70
2023-10-25T04:45:44.298Z,200.40
2023-10-25T04:48:12.857Z,151.57
2023-10-25T04:50:40.059Z,142.35
2023-10-25T04:53:07.534Z,103.35
2023-10-25T04:55:35.787Z,122.13
2023-10-25T04:58:04.041Z,74.40
2023-10-25T05:00:31.760Z,65.70
2023-10-25T05:02:59.248Z,33.08
2023-10-25T05:05:27.825Z,29.40
2023-10-25T05:07:55.642Z,39.25
2023-10-25T05:10:23.390Z,23.65
2023-10-25T05:12:51.126Z,18.63
2023-10-25T05:15:19.370Z,16.63
2023-10-25T05:17:48.147Z,19.50
2023-10-25T05:20:16.163Z,14.02
2023-10-25T05:22:50.506Z,10.43
2023-10-25T05:25:18.757Z,13.18
2023-10-25T05:27:46.674Z,8.18
2023-10-25T05:30:15.584Z,8.98
2023-10-25T05:32:45.464Z,7.65
2023-10-25T05:35:13.570Z,8.20
2023-10-25T05:37:41.246Z,7.63
2023-10-25T05:40:11.028Z,5.88
2023-10-25T05:42:46.892Z,5.82
2023-10-25T05:45:14.430Z,6.35
2023-10-25T05:47:42.509Z,4.78
2023-10-25T05:50:10.948Z,5.07
2023-10-25T05:52:38.732Z,7.53
2023-10-25T05:55:07.133Z,5.63
2023-10-25T05:57:36.391Z,6.82
2023-10-25T06:00:04.613Z,5.43
2023-10-25T06:02:34.571Z,4.22
2023-10-25T06:05:06.850Z,5.53
2023-10-25T06:07:35.166Z,4.15
2023-10-25T06:10:02.965Z,5.85
2023-10-25T06:12:30.770Z,4.68
2023-10-25T06:14:59.280Z,5.78
2023-10-25T06:17:26.773Z,4.40
2023-10-25T06:19:54.010Z,3.78
2023-10-25T06:22:21.264Z,4.38
2023-10-25T06:24:48.509Z,3.72
2023-10-25T06:27:15.698Z,5.28
2023-10-25T06:29:42.854Z,4.05
2023-10-25T06:32:11.514Z,6.13
2023-10-25T06:34:38.650Z,3.67
2023-10-25T06:37:07.469Z,3.28
2023-10-25T06:39:35.142Z,4.57
2023-10-25T06:42:02.788Z,5.05
2023-10-25T06:44:30.436Z,4.60
2023-10-25T06:46:58.355Z,3.67
2023-10-25T06:49:27.700Z,3.10
2023-10-25T06:51:55.437Z,2.88
2023-10-25T06:54:23.168Z,4.55
2023-10-25T06:56:50.904Z,3.83
2023-10-25T06:59:18.663Z,4.32
2023-10-25T07:01:47.194Z,4.13
2023-10-25T07:04:15.692Z,5.05
2023-10-25T07:06:46.702Z,3.47
2023-10-25T07:09:14.612Z,4.38
2023-10-25T07:11:41.744Z,4.72
2023-10-25T07:14:08.912Z,3.08
2023-10-25T07:16:37.085Z,3.60
2023-10-25T07:19:04.412Z,3.30
2023-10-25T07:21:31.694Z,2.88
2023-10-25T07:24:00.631Z,2.72
2023-10-25T07:26:27.777Z,2.92
2023-10-25T07:28:54.973Z,3.10
2023-10-25T07:31:22.255Z,3.47
2023-10-25T07:33:49.732Z,3.97
2023-10-25T07:36:16.873Z,3.95
2023-10-25T07:38:44.144Z,2.70
2023-10-25T07:41:12.622Z,5.28
2023-10-25T07:43:39.785Z,3.20
2023-10-25T07:46:07.000Z,4.28
2023-10-25T07:48:34.191Z,2.30
2023-10-25T07:51:04.395Z,3.30
2023-10-25T07:53:31.627Z,2.55
2023-10-25T08:01:01.659Z,2.55
2023-10-25T08:03:28.933Z,3.00
2023-10-25T08:05:56.524Z,3.88
2023-10-25T08:08:23.724Z,2.88
2023-10-25T08:11:00.058Z,2.83
2023-10-25T08:13:27.213Z,3.28
2023-10-25T08:15:58.822Z,2.50
2023-10-25T08:18:27.592Z,2.95
2023-10-25T08:20:57.246Z,4.00
2023-10-25T08:23:26.009Z,4.20
2023-10-25T08:25:53.293Z,2.60
2023-10-25T08:28:20.874Z,3.17
2023-10-25T08:30:48.245Z,2.17
2023-10-25T08:33:16.929Z,3.28
2023-10-25T08:35:44.152Z,3.08
2023-10-25T08:38:11.299Z,5.68
2023-10-25T08:40:38.661Z,2.05
2023-10-25T08:43:05.811Z,2.38
2023-10-25T08:45:33.036Z,2.85
2023-10-25T08:48:00.348Z,3.47
2023-10-25T08:50:31.212Z,3.13
2023-10-25T08:52:59.012Z,3.00
2023-10-25T08:55:26.352Z,2.13
2023-10-25T08:57:53.515Z,3.03
2023-10-25T09:00:23.630Z,2.55
2023-10-25T09:03:02.759Z,2.80
2023-10-25T09:05:41.744Z,3.38
2023-10-25T09:08:15.459Z,3.67
2023-10-25T09:10:42.597Z,2.53
2023-10-25T09:13:13.236Z,3.15
2023-10-25T09:15:40.435Z,2.55
2023-10-25T09:18:07.689Z,2.05
2023-10-25T09:20:34.967Z,4.07
2023-10-25T09:23:13.111Z,2.83
2023-10-25T09:25:40.284Z,2.75
2023-10-25T09:28:15.482Z,2.63
2023-10-25T09:30:43.703Z,4.05
2023-10-25T09:33:11.238Z,2.97
2023-10-25T09:35:38.563Z,4.82
2023-10-25T09:38:05.728Z,2.00
2023-10-25T09:40:34.208Z,2.97
2023-10-25T09:43:06.934Z,2.50
2023-10-25T09:45:35.487Z,3.25
2023-10-25T09:48:08.305Z,3.97
2023-10-25T09:50:42.696Z,2.22
2023-10-25T09:53:15.099Z,2.00
2023-10-25T09:55:46.924Z,3.15
2023-10-25T09:58:16.365Z,3.30
2023-10-25T10:00:43.750Z,2.28
2023-10-25T10:03:23.244Z,3.95
2023-10-25T10:05:56.744Z,2.78
2023-10-25T10:08:31.300Z,2.55
2023-10-25T10:11:06.105Z,2.90
2023-10-25T10:13:33.269Z,2.75
2023-10-25T10:16:02.044Z,2.85
2023-10-25T10:18:30.039Z,3.53
2023-10-25T10:21:01.319Z,3.58
2023-10-25T10:23:36.552Z,3.65
2023-10-25T10:26:05.758Z,3.08
2023-10-25T10:28:43.193Z,3.28
2023-10-25T10:31:12.425Z,1.98
2023-10-25T10:33:44.855Z,2.58
2023-10-25T10:36:12.428Z,2.80
2023-10-25T10:39:13.247Z,3.08
2023-10-25T10:41:43.171Z,2.85
2023-10-25T10:44:10.938Z,2.03
2023-10-25T10:46:44.297Z,2.03
2023-10-25T10:49:11.839Z,2.38
2023-10-25T10:51:39.015Z,3.45
2023-10-25T10:54:06.585Z,2.88
2023-10-25T10:56:34.678Z,2.40
2023-10-25T10:59:03.303Z,2.28
2023-10-25T11:01:31.074Z,2.90
2023-10-25T11:03:58.664Z,1.77
2023-10-25T11:06:25.983Z,3.28
2023-10-25T11:08:53.738Z,2.78
2023-10-25T11:11:21.632Z,2.67
2023-10-25T11:13:50.092Z,2.38
2023-10-25T11:16:18.963Z,2.90
2023-10-25T11:18:46.123Z,2.35
2023-10-25T11:21:13.330Z,2.88
2023-10-25T11:23:40.615Z,2.58
2023-10-25T11:26:07.789Z,2.95
2023-10-25T11:28:35.018Z,2.20
2023-10-25T11:31:03.244Z,2.78
2023-10-25T11:33:43.032Z,2.00
2023-10-25T11:36:11.389Z,2.58
2023-10-25T11:38:42.426Z,1.85
2023-10-25T11:41:10.253Z,2.70
2023-10-25T11:43:37.496Z,2.05
2023-10-25T11:46:04.792Z,2.33
2023-10-25T11:48:34.750Z,3.33
2023-10-25T11:51:02.677Z,2.38
2023-10-25T11:53:29.883Z,2.22
2023-10-25T11:55:57.078Z,2.17
2023-10-25T11:58:24.246Z,2.17
2023-10-25T12:00:51.734Z,2.97
2023-10-25T12:03:18.965Z,2.70
2023-10-25T12:05:47.704Z,2.20
2023-10-25T12:08:14.876Z,2.15
2023-10-25T12:10:42.016Z,2.00
2023-10-25T12:13:09.166Z,2.53
2023-10-25T12:15:36.395Z,1.90
2023-10-25T12:18:03.812Z,1.83
2023-10-25T12:20:31.049Z,2.08
2023-10-25T12:22:59.677Z,1.65
2023-10-25T12:25:28.043Z,1.70
2023-10-25T12:27:55.267Z,2.25
2023-10-25T12:30:22.412Z,1.90
2023-10-25T12:32:50.251Z,2.25
2023-10-25T12:35:17.692Z,2.20
2023-10-25T12:37:44.840Z,1.42
2023-10-25T12:40:13.572Z,1.92
2023-10-25T12:42:40.786Z,1.63
2023-10-25T12:45:08.611Z,3.00
2023-10-25T12:47:35.896Z,2.25
2023-10-25T12:50:03.322Z,1.67
2023-10-25T12:52:30.452Z,2.17
2023-10-25T12:54:57.592Z,1.35
2023-10-25T12:57:26.112Z,2.03
2023-10-25T12:59:53.334Z,1.77
2023-10-25T13:02:20.635Z,1.42
2023-10-25T13:04:47.939Z,2.47
2023-10-25T13:07:15.554Z,1.55
2023-10-25T13:09:42.692Z,1.58
2023-10-25T13:12:10.506Z,1.30
2023-10-25T13:14:39.153Z,2.10
2023-10-25T13:17:19.070Z,2.00
2023-10-25T13:19:47.212Z,1.75
2023-10-25T13:22:14.334Z,1.48
2023-10-25T13:24:41.645Z,2.25
2023-10-25T13:27:09.039Z,2.17
2023-10-25T13:29:36.419Z,1.52
2023-10-25T13:32:05.505Z,2.45
2023-10-25T13:34:32.676Z,1.60
2023-10-25T13:36:59.809Z,2.03
2023-10-25T13:39:26.993Z,1.45
2023-10-25T13:41:54.412Z,2.25
2023-10-25T13:44:21.535Z,1.98
2023-10-25T13:46:48.664Z,1.73
2023-10-25T13:49:17.405Z,2.00
2023-10-25T13:51:45.822Z,1.60
2023-10-25T13:54:12.990Z,1.88
2023-10-25T13:56:40.140Z,2.15
2023-10-25T13:59:07.308Z,1.63
2023-10-25T14:01:34.493Z,1.80
2023-10-25T14:04:01.891Z,2.03
2023-10-25T14:06:30.443Z,1.52
2023-10-25T14:08:57.600Z,1.65
2023-10-25T14:11:24.855Z,1.80
2023-10-25T14:13:51.999Z,1.75
2023-10-25T14:16:19.156Z,1.90
2023-10-25T14:18:46.624Z,1.50
2023-10-25T14:21:17.391Z,1.90
2023-10-25T14:23:47.247Z,1.83
2023-10-25T14:26:14.536Z,2.47
2023-10-25T14:28:41.684Z,1.50
2023-10-25T14:31:14.052Z,1.70
2023-10-25T14:33:41.282Z,1.77
2023-10-25T14:36:12.329Z,1.35
2023-10-25T14:38:39.470Z,1.70
2023-10-25T14:41:09.072Z,1.60
2023-10-25T14:43:36.820Z,1.55
2023-10-25T14:46:04.665Z,2.28
2023-10-25T14:48:31.918Z,1.60
2023-10-25T14:50:59.119Z,1.23
2023-10-25T14:53:26.285Z,1.90
2023-10-25T14:55:53.534Z,1.55
2023-10-25T14:58:22.019Z,1.45
2023-10-25T15:00:49.217Z,1.38
2023-10-25T15:03:16.533Z,1.63
2023-10-25T15:05:43.952Z,1.38
2023-10-25T15:08:11.281Z,2.28
2023-10-25T15:10:38.396Z,1.85
2023-10-25T15:13:05.512Z,1.40
2023-10-25T15:15:34.089Z,2.28
2023-10-25T15:18:01.466Z,1.73
2023-10-25T15:20:28.664Z,1.27
2023-10-25T15:22:55.802Z,2.15
2023-10-25T15:25:22.897Z,1.48
2023-10-25T15:27:50.337Z,1.52
2023-10-25T15:30:17.577Z,1.35
2023-10-25T15:32:46.145Z,1.10
2023-10-25T15:35:13.416Z,1.45
2023-10-25T15:37:40.861Z,1.40
2023-10-25T15:40:15.954Z,1.98
2023-10-25T15:42:45.542Z,1.83
2023-10-25T15:45:13.074Z,1.85
2023-10-25T15:47:40.389Z,1.25
2023-10-25T15:50:10.194Z,1.13
2023-10-25T15:52:37.723Z,1.10
2023-10-25T15:55:06.096Z,1.67
2023-10-25T15:57:33.355Z,1.25
2023-10-25T16:00:00.598Z,1.10
2023-10-25T16:02:27.910Z,1.65
2023-10-25T16:04:55.106Z,1.67
2023-10-25T16:07:23.702Z,1.98
2023-10-25T16:09:50.856Z,1.63
2023-10-25T16:12:18.098Z,1.42
2023-10-25T16:14:45.454Z,1.33
2023-10-25T16:17:12.776Z,1.67
2023-10-25T16:19:39.996Z,1.50
2023-10-25T16:22:07.166Z,1.25
2023-10-25T16:24:35.665Z,1.83
2023-10-25T16:27:03.116Z,1.85
2023-10-25T16:29:30.333Z,1.75
2023-10-25T16:31:57.505Z,2.78
2023-10-25T16:34:24.680Z,2.40
2023-10-25T16:37:03.941Z,1.30
2023-10-25T16:39:31.666Z,2.88
2023-10-25T16:42:00.818Z,5.78
2023-10-25T16:44:28.234Z,3.40
2023-10-25T16:46:55.507Z,3.65
2023-10-25T16:49:22.679Z,4.53
2023-10-25T16:51:49.878Z,2.72
2023-10-25T16:54:17.204Z,3.47
2023-10-25T16:56:44.364Z,7.70
2023-10-25T16:59:12.863Z,4.57
2023-10-25T17:01:40.322Z,2.85
2023-10-25T17:04:07.885Z,3.42
2023-10-25T17:06:35.444Z,5.03
2023-10-25T17:09:02.667Z,10.32
2023-10-25T17:11:29.798Z,6.78
2023-10-25T17:13:58.083Z,14.88
2023-10-25T17:16:27.992Z,13.35
2023-10-25T17:18:55.127Z,12.00
2023-10-25T17:21:24.046Z,12.82
2023-10-25T17:23:51.324Z,6.50
2023-10-25T17:26:18.456Z,9.63
2023-10-25T17:28:45.615Z,5.82
2023-10-25T17:31:12.790Z,6.07
2023-10-25T17:33:41.327Z,4.22
2023-10-25T17:36:09.610Z,5.10
2023-10-25T17:38:37.449Z,3.83
2023-10-25T17:41:05.389Z,4.20
2023-10-25T17:43:32.593Z,5.00
2023-10-25T17:46:11.135Z,2.85
2023-10-25T17:48:38.983Z,6.55
2023-10-25T17:51:09.279Z,3.13
2023-10-25T17:53:36.924Z,3.35
2023-10-25T17:56:04.957Z,3.58
2023-10-25T17:58:32.218Z,3.95
2023-10-25T18:00:59.563Z,2.55
2023-10-25T18:03:26.811Z,4.38
2023-10-25T18:05:54.153Z,5.57
2023-10-25T18:08:22.928Z,2.65
2023-10-25T18:10:50.486Z,1.75
2023-10-25T18:13:17.630Z,3.83
2023-10-25T18:15:44.920Z,2.05
2023-10-25T18:18:12.178Z,2.72
2023-10-25T18:20:39.501Z,2.85
2023-10-25T18:23:06.778Z,1.35
2023-10-25T18:25:35.327Z,2.42
2023-10-25T18:28:02.763Z,2.90
2023-10-25T18:31:54.740Z,3.22
2023-10-25T18:33:18.043Z,3.53
2023-10-25T18:35:45.579Z,2.88
2023-10-25T18:38:12.817Z,5.72
2023-10-25T18:40:41.519Z,4.43
2023-10-25T18:43:08.660Z,2.78
2023-10-25T18:45:35.848Z,5.22
2023-10-25T18:48:03.177Z,2.95
2023-10-25T18:50:30.341Z,3.22
2023-10-25T18:52:57.465Z,3.92
2023-10-25T18:55:24.648Z,6.30
2023-10-25T18:57:53.147Z,5.15
2023-10-25T19:00:22.241Z,1.70
2023-10-25T19:02:51.006Z,1.27
2023-10-25T19:06:25.999Z,3.63
2023-10-25T19:08:26.611Z,2.53
2023-10-25T19:10:52.736Z,5.00
2023-10-25T19:13:21.320Z,4.35
2023-10-25T19:15:48.494Z,3.45
2023-10-25T19:18:15.812Z,3.67
2023-10-25T19:20:43.259Z,3.33
2023-10-25T19:23:10.458Z,3.13
2023-10-25T19:25:37.623Z,4.30
2023-10-25T19:28:05.776Z,4.22
2023-10-25T19:30:34.648Z,3.70
2023-10-25T19:33:02.082Z,3.88
2023-10-25T19:35:29.330Z,2.92
2023-10-25T19:37:56.543Z,2.25
2023-10-25T19:40:23.681Z,2.30
2023-10-25T19:42:50.834Z,3.88
2023-10-25T19:45:18.045Z,8.45
2023-10-25T19:47:46.602Z,4.25
2023-10-25T19:50:13.765Z,3.38
2023-10-25T19:52:40.894Z,3.47
2023-10-25T19:55:08.658Z,2.60
2023-10-25T19:57:35.835Z,3.97
2023-10-25T20:00:03.197Z,4.35
2023-10-25T20:02:30.354Z,3.00
2023-10-25T20:04:59.085Z,2.47
2023-10-25T20:07:26.220Z,3.65
2023-10-25T20:09:53.568Z,4.25
2023-10-25T20:12:20.752Z,2.47
2023-10-25T20:14:47.977Z,2.17
2023-10-25T20:17:15.127Z,3.90
2023-10-25T20:19:42.381Z,4.07
2023-10-25T20:22:10.911Z,2.85
2023-10-25T20:24:38.281Z,3.15
2023-10-25T20:27:05.499Z,4.45
2023-10-25T20:29:32.645Z,2.42
2023-10-25T20:31:59.767Z,2.40
2023-10-25T20:34:26.895Z,3.13
2023-10-25T20:36:54.022Z,2.65
2023-10-25T20:39:22.562Z,2.40
2023-10-25T20:41:49.744Z,2.13
2023-10-25T20:44:16.920Z,2.65
2023-10-25T20:46:44.422Z,1.50
2023-10-25T20:49:11.684Z,3.22
2023-10-25T20:51:38.837Z,4.15
2023-10-25T20:54:06.176Z,2.53
2023-10-25T20:56:34.702Z,1.92
2023-10-25T20:59:01.850Z,2.28
2023-10-25T21:01:29.032Z,1.98
2023-10-25T21:03:56.435Z,2.50
2023-10-25T21:06:23.748Z,2.20
2023-10-25T21:08:51.004Z,1.55
2023-10-25T21:11:18.353Z,2.60
2023-10-25T21:13:46.842Z,1.90
2023-10-25T21:16:14.416Z,2.40
2023-10-25T21:18:41.732Z,1.42
2023-10-25T21:21:08.965Z,1.67
2023-10-25T21:23:36.239Z,1.85
2023-10-25T21:26:06.808Z,1.48
2023-10-25T21:28:34.243Z,1.55
2023-10-25T21:31:06.592Z,2.30
2023-10-25T21:33:33.790Z,2.05
2023-10-25T21:36:05.514Z,1.38
2023-10-25T21:38:32.696Z,1.83
2023-10-25T21:41:02.348Z,1.83
2023-10-25T21:43:29.590Z,1.65
2023-10-25T21:45:57.169Z,2.00
2023-10-25T21:48:26.526Z,2.10
2023-10-25T21:50:58.060Z,2.67
2023-10-25T21:53:25.252Z,2.47
2023-10-25T21:56:22.990Z,3.40
2023-10-25T21:59:46.549Z,1.73
2023-10-25T22:01:27.745Z,2.03
2023-10-25T22:03:56.323Z,2.83
2023-10-25T22:06:23.508Z,1.08
2023-10-25T22:08:50.706Z,2.50
2023-10-25T22:11:17.917Z,1.75
2023-10-25T22:13:45.083Z,1.67
2023-10-25T22:16:12.194Z,2.00
2023-10-25T22:18:39.423Z,2.97
2023-10-25T22:21:08.095Z,1.15
2023-10-25T22:23:35.293Z,2.30
2023-10-25T22:26:02.450Z,1.13
2023-10-25T22:28:29.563Z,1.98
2023-10-25T22:30:56.664Z,1.42
2023-10-25T22:33:24.004Z,1.65
2023-10-25T22:35:51.218Z,1.08
2023-10-25T22:38:19.799Z,1.63
2023-10-25T22:40:47.119Z,1.95
2023-10-25T22:43:14.581Z,2.00
2023-10-25T22:45:41.705Z,2.22
2023-10-25T22:48:08.930Z,1.20
2023-10-25T22:50:36.100Z,2.85
2023-10-25T22:53:03.255Z,1.20
2023-10-25T22:55:31.770Z,0.63
2023-10-25T22:57:58.900Z,1.20
2023-10-25T23:00:26.083Z,1.15
2023-10-25T23:02:53.295Z,0.93
2023-10-25T23:05:20.534Z,0.75
2023-10-25T23:07:47.691Z,0.90
2023-10-25T23:10:14.920Z,1.88
2023-10-25T23:12:43.414Z,2.08
2023-10-25T23:15:11.073Z,1.33
2023-10-25T23:17:38.322Z,1.20
2023-10-25T23:20:06.847Z,2.35
2023-10-25T23:22:34.325Z,1.77
2023-10-25T23:25:01.717Z,0.75
2023-10-25T23:27:28.912Z,0.73
2023-10-25T23:29:57.392Z,2.35
2023-10-25T23:32:24.690Z,1.38
2023-10-25T23:34:51.838Z,1.65
2023-10-25T23:37:18.990Z,2.35
2023-10-25T23:39:46.621Z,1.63
2023-10-25T23:42:13.801Z,1.50
2023-10-25T23:44:41.069Z,0.93
2023-10-25T23:47:09.670Z,1.15
2023-10-25T23:49:37.072Z,1.33
2023-10-25T23:52:04.811Z,1.27
2023-10-25T23:54:50.617Z,1.70
2023-10-25T23:57:19.069Z,1.48
2023-10-25T23:59:46.284Z,1.15
